Meadville, PA (16335)

7:27 AM EDT on September 04, 2015 (GMT -0400)
Gilmore St | | Change Station
CLOSE
Current Station
Personal Weather Station
Location: Meadville, PA
Elevation: 1365 ft
Nearby Weather Stations

Elev 1365 ft 41.65 °N, 80.14 °W | Updated 1 minute ago

Fog
Fog
63.5 °F
Feels Like 63.5 °F
N
1.6
Wind Variable Wind from SW
Gusts 2.2 mph

Today
High -- | Low -- °F
--% Chance of Precip.
Yesterday
High -- | Low -- °F
Precip. -- in
6:49 AM 7:49 PM
Waning Gibbous, 60% visible
Pressure 30.06 in
Visibility 0.2 miles
Clouds
Dew Point 63 °F
Humidity 99%
Rainfall 0.00 in
Snow Depth Not available.
UV 0.0 out of 12
Pollen 10.20 out of 12
Air Quality Not available.
Flu Activity Not available.
SPECI KGKJ 041105Z AUTO 21005KT 1/4SM FG VV002 19/17 A3006 RMK AO2 T01890172 TSNO
Pressure 30.06 in
Visibility 0.2 miles
Clouds
Dew Point 63 °F
Humidity 99%
Rainfall 0.00 in
Snow Depth Not available.
UV 0.0 out of 12
Pollen 10.20 out of 12
Air Quality Not available.
Flu Activity Not available.
SPECI KGKJ 041105Z AUTO 21005KT 1/4SM FG VV002 19/17 A3006 RMK AO2 T01890172 TSNO

10-Day Weather Forecast

×

Almanac

Astronomy

Sep. 04, 2015 Rise Set
Actual Time
Civil Twilight
Nautical Twilight
Astronomical Twilight
Moon
Length of Visible Light
Length of Day
Tomorrow will be .
, % of the Moon is Illuminated

Today's Extremes

State Highs State Lows

Community

WunderPhotos

Upload Photos

1,852,150 photos uploaded!

WunderBlogs® & News

Nearby

Air Quality

  Air Quality AQ Index Pollutant
Not available.

Snow Depth

Station Depth Elevation

Earthquake Activity

City Distance Mag. Time & Date
Minimum magnitude displayed is 2.5.

Coastal Water Temperatures

Place Temperature

Stations

Nearby Weather Stations

Station Location Temp. Windchill Dew Point Humidity Wind Precip. Elev Updated Type